Time;durP1;ratioP1;P1;durP2;ratioP2;P2;SDS_P1;SDS_P2;PMS_P1;PMS_P2;Temp;Humidity;BMP_temperature;BMP_pressure;BME280_temperature;BME280_humidity;BME280_pressure;Samples;Min_cycle;Max_cycle;Signal;HPM_P1;HPM_P2
2022/05/10 00:02:24;;;;;;;10.10;4.62;;;;;;;13.66;77.51;101225.31;18626306;31;20095;-68
2022/05/10 00:12:28;;;;;;;10.13;4.45;;;;;;;13.16;79.43;101215.69;18626909;31;20133;-68
2022/05/10 00:22:32;;;;;;;8.80;4.07;;;;;;;13.12;80.36;101216.59;18625566;31;20088;-68
2022/05/10 00:32:37;;;;;;;8.02;3.87;;;;;;;13.90;77.31;101208.62;18626509;31;20096;-68
2022/05/10 00:42:51;;;;;;;8.75;3.78;;;;;;;13.99;77.69;101203.37;18624310;31;20100;-68
2022/05/10 00:52:58;;;;;;;7.25;3.50;;;;;;;13.54;79.52;101192.09;18623825;31;20177;-67
2022/05/10 01:03:08;;;;;;;8.85;3.95;;;;;;;13.52;80.09;101192.13;18623324;31;20099;-68
2022/05/10 01:13:19;;;;;;;8.82;4.20;;;;;;;13.50;79.37;101187.75;18631442;31;20135;-68
2022/05/10 01:23:48;;;;;;;7.90;3.67;;;;;;;13.85;78.24;101190.28;18631223;31;20502;-68
2022/05/10 01:33:55;;;;;;;7.00;3.60;;;;;;;13.68;77.96;101171.97;18631147;31;20414;-67
2022/05/10 01:44:05;;;;;;;9.38;3.90;;;;;;;13.45;78.03;101174.66;18630577;31;20114;-68
2022/05/10 01:54:37;;;;;;;8.25;3.80;;;;;;;14.16;75.81;101157.78;18626595;31;20118;-68
2022/05/10 02:04:40;;;;;;;7.70;3.80;;;;;;;13.58;78.76;101154.53;18629527;31;20124;-68
2022/05/10 02:14:48;;;;;;;9.95;4.05;;;;;;;13.35;80.23;101157.16;18615106;31;20099;-67
2022/05/10 02:24:54;;;;;;;8.45;4.05;;;;;;;13.18;81.34;101143.19;18629240;31;20131;-68
2022/05/10 02:35:00;;;;;;;8.82;3.50;;;;;;;13.49;80.32;101141.41;18630163;31;20088;-68
2022/05/10 02:45:04;;;;;;;9.43;4.47;;;;;;;13.45;80.34;101143.19;18629807;31;20096;-68
2022/05/10 02:55:13;;;;;;;8.75;3.85;;;;;;;13.87;78.16;101143.91;18628035;31;20118;-68
2022/05/10 03:05:17;;;;;;;6.57;3.40;;;;;;;13.56;79.65;101138.78;18628260;31;20098;-68
2022/05/10 03:15:21;;;;;;;8.85;3.58;;;;;;;13.59;79.07;101138.75;18628044;31;20192;-68
2022/05/10 03:25:25;;;;;;;9.50;3.67;;;;;;;13.69;77.48;101131.75;18627543;31;20087;-68
2022/05/10 03:35:30;;;;;;;8.05;3.47;;;;;;;13.87;76.15;101122.91;18627019;31;20121;-68
2022/05/10 03:45:33;;;;;;;8.27;4.15;;;;;;;13.49;77.03;101129.16;18626981;31;20448;-67
2022/05/10 03:55:37;;;;;;;7.15;3.70;;;;;;;13.11;78.34;101133.59;18626753;31;20100;-68
2022/05/10 04:05:43;;;;;;;7.28;3.67;;;;;;;13.33;78.87;101130.94;18626586;31;20659;-68
2022/05/10 04:15:48;;;;;;;6.30;3.45;;;;;;;13.77;79.51;101138.72;18626212;31;20107;-68
2022/05/10 04:25:51;;;;;;;7.25;3.87;;;;;;;14.18;77.50;101142.91;18625520;31;20413;-68
2022/05/10 04:35:56;;;;;;;10.35;4.25;;;;;;;13.95;79.39;101143.91;18622585;31;20456;-68
2022/05/10 04:45:59;;;;;;;8.02;4.00;;;;;;;14.29;80.37;101151.59;18622680;31;20088;-68
2022/05/10 04:56:05;;;;;;;9.40;4.75;;;;;;;15.24;77.84;101160.56;18630782;31;20375;-68
2022/05/10 05:06:08;;;;;;;9.63;4.35;;;;;;;15.20;80.51;101158.84;18630546;31;20080;-68
2022/05/10 05:16:13;;;;;;;9.27;4.32;;;;;;;15.82;78.67;101166.06;18594225;31;20128;-68
2022/05/10 05:26:16;;;;;;;9.27;4.62;;;;;;;16.49;76.74;101154.72;18564819;32;20107;-68
2022/05/10 05:36:21;;;;;;;8.50;4.12;;;;;;;16.96;76.38;101165.37;18563473;32;20193;-68
2022/05/10 05:46:25;;;;;;;9.20;3.97;;;;;;;17.70;74.31;101164.97;18564134;32;20089;-68
2022/05/10 05:56:29;;;;;;;6.70;3.55;;;;;;;18.50;70.79;101169.50;18549449;32;20445;-68
2022/05/10 06:06:32;;;;;;;5.50;2.97;;;;;;;18.43;65.49;101164.34;18548780;32;20175;-68
2022/05/10 06:16:40;;;;;;;6.47;2.90;;;;;;;18.35;69.59;101176.88;18562113;32;20467;-68
2022/05/10 06:26:43;;;;;;;5.57;2.60;;;;;;;18.55;69.35;101172.91;18564594;31;20725;-69
2022/05/10 06:36:47;;;;;;;5.80;2.72;;;;;;;18.74;66.19;101172.47;18562729;32;20100;-69
2022/05/10 06:46:51;;;;;;;5.75;2.50;;;;;;;18.81;68.48;101169.63;18562662;32;20110;-69
2022/05/10 06:56:55;;;;;;;5.97;2.50;;;;;;;19.08;66.17;101164.59;18562170;32;20100;-69
2022/05/10 07:06:59;;;;;;;4.70;2.40;;;;;;;20.10;63.13;101158.28;18594541;31;20120;-69
2022/05/10 07:17:04;;;;;;;3.92;1.83;;;;;;;20.63;60.26;101156.66;18561406;31;20132;-68
2022/05/10 07:27:07;;;;;;;3.20;1.77;;;;;;;22.86;43.12;101153.91;18561735;31;20081;-69
2022/05/10 07:37:12;;;;;;;3.58;1.80;;;;;;;24.56;40.08;101152.53;18561284;31;20395;-69
2022/05/10 07:47:15;;;;;;;2.90;1.70;;;;;;;25.27;43.53;101147.22;18557255;31;110715;-69
2022/05/10 07:57:20;;;;;;;4.07;2.00;;;;;;;26.08;35.66;101148.28;18560970;32;20452;-69
2022/05/10 08:07:23;;;;;;;3.58;1.87;;;;;;;23.60;42.75;101136.53;18558980;31;20096;-69
2022/05/10 08:17:28;;;;;;;4.40;1.98;;;;;;;24.49;40.42;101132.41;18559459;31;20110;-69
2022/05/10 08:27:31;;;;;;;3.37;1.67;;;;;;;24.21;40.00;101131.09;18560263;31;20092;-69
2022/05/10 08:37:37;;;;;;;3.10;1.60;;;;;;;23.88;42.93;101123.75;18545133;31;20467;-69
2022/05/10 08:47:42;;;;;;;4.68;1.80;;;;;;;23.75;39.90;101129.63;18558048;31;20123;-68
2022/05/10 08:57:50;;;;;;;3.05;1.62;;;;;;;23.83;41.20;101122.13;18557624;32;20131;-69
2022/05/10 09:08:01;;;;;;;2.87;1.62;;;;;;;24.17;38.19;101114.38;18568557;31;20107;-69
2022/05/10 09:18:16;;;;;;;3.42;1.50;;;;;;;25.46;32.88;101104.37;18577690;31;20467;-68
2022/05/10 09:28:23;;;;;;;2.30;1.40;;;;;;;25.19;32.47;101102.22;18596592;31;20482;-69
2022/05/10 09:38:28;;;;;;;2.70;1.58;;;;;;;26.49;31.15;101090.72;18629477;31;20083;-70
2022/05/10 09:48:31;;;;;;;2.37;1.60;;;;;;;25.57;31.49;101099.34;18628527;31;20122;-69
2022/05/10 09:58:38;;;;;;;3.15;1.62;;;;;;;25.37;32.62;101094.19;18629257;31;20148;-69
2022/05/10 10:08:44;;;;;;;3.08;1.60;;;;;;;25.53;35.21;101083.53;18625018;31;20143;-69
2022/05/10 10:18:51;;;;;;;3.08;1.67;;;;;;;26.37;32.49;101074.44;18612323;31;20114;-72
2022/05/10 10:28:56;;;;;;;3.15;1.77;;;;;;;26.35;31.96;101068.28;18591465;31;20181;-70
2022/05/10 10:39:06;;;;;;;3.30;1.50;;;;;;;26.73;32.71;101045.53;18610448;31;20102;-69
2022/05/10 10:49:13;;;;;;;4.43;2.05;;;;;;;25.70;33.05;101047.84;18559883;31;20097;-70
2022/05/10 10:59:39;;;;;;;4.35;1.70;;;;;;;26.91;29.77;101013.28;18560018;31;20190;-69
2022/05/10 11:09:50;;;;;;;3.15;1.80;;;;;;;26.95;30.62;101015.66;18560319;31;20098;-69
2022/05/10 11:20:19;;;;;;;4.10;1.52;;;;;;;26.30;30.83;101001.66;18544932;31;20089;-69
2022/05/10 11:30:26;;;;;;;2.78;1.60;;;;;;;27.18;32.72;100996.44;18545466;31;20381;-67
2022/05/10 11:40:45;;;;;;;2.28;1.40;;;;;;;26.99;29.25;100977.00;18558211;31;20103;-66
2022/05/10 11:51:44;;;;;;;3.30;1.52;;;;;;;26.03;36.02;100964.81;18353316;32;20154;-67
2022/05/10 12:01:50;;;;;;;2.97;1.65;;;;;;;25.59;34.47;100950.41;18388674;31;20116;-67
2022/05/10 12:11:54;;;;;;;3.37;1.52;;;;;;;26.68;34.13;100935.16;18591536;31;20136;-66
2022/05/10 12:22:00;;;;;;;3.00;1.37;;;;;;;25.85;32.99;100926.66;18617545;31;20118;-67
2022/05/10 12:32:04;;;;;;;2.75;1.55;;;;;;;26.70;30.42;100907.34;18609277;31;20180;-67
2022/05/10 12:42:13;;;;;;;3.15;1.73;;;;;;;26.50;33.12;100899.69;18619003;31;20117;-67
2022/05/10 12:52:27;;;;;;;2.72;1.50;;;;;;;27.65;31.83;100881.75;18614997;31;20110;-66
2022/05/10 13:02:32;;;;;;;2.97;1.58;;;;;;;27.30;31.59;100869.69;18610099;31;20247;-67
2022/05/10 13:12:37;;;;;;;2.03;1.40;;;;;;;27.75;28.72;100844.44;18628351;31;20136;-67
2022/05/10 13:22:50;;;;;;;2.42;1.37;;;;;;;28.11;28.10;100826.75;18630726;31;20088;-67
2022/05/10 13:32:53;;;;;;;2.58;1.55;;;;;;;27.27;29.50;100817.16;18558136;31;20104;-67
2022/05/10 13:43:08;;;;;;;3.53;1.65;;;;;;;26.15;34.26;100808.09;18560887;31;20543;-66
2022/05/10 13:53:16;;;;;;;3.08;1.40;;;;;;;26.65;28.72;100796.16;18567638;31;20084;-66
2022/05/10 14:03:21;;;;;;;3.08;1.60;;;;;;;25.98;29.52;100789.53;18569838;31;20419;-67
2022/05/10 14:13:24;;;;;;;4.45;1.70;;;;;;;26.06;30.57;100770.34;18563630;32;20142;-66
2022/05/10 14:23:34;;;;;;;2.92;1.42;;;;;;;26.17;32.31;100763.38;18564005;32;20100;-66
2022/05/10 14:33:39;;;;;;;2.03;1.33;;;;;;;25.89;33.21;100761.56;18597040;31;20080;-66
2022/05/10 14:43:44;;;;;;;2.95;1.58;;;;;;;25.66;32.37;100744.25;18625700;31;20100;-66
2022/05/10 14:53:53;;;;;;;3.37;1.25;;;;;;;26.43;28.96;100739.50;18623638;31;20076;-66
2022/05/10 15:04:04;;;;;;;3.67;1.30;;;;;;;26.92;26.63;100731.09;18559101;32;20140;-66
2022/05/10 15:14:07;;;;;;;2.42;1.45;;;;;;;27.15;26.51;100724.19;18557456;31;20122;-66
2022/05/10 15:24:12;;;;;;;3.72;1.35;;;;;;;26.75;25.47;100719.63;18559836;32;20099;-66
2022/05/10 15:44:38;;;;;;;3.37;1.40;;;;;;;26.78;26.93;100713.22;18560075;32;20099;-69
2022/05/10 15:54:41;;;;;;;2.58;1.25;;;;;;;26.85;26.61;100709.19;18560022;31;20119;-68
2022/05/10 16:04:46;;;;;;;2.37;1.20;;;;;;;26.42;26.63;100702.13;18617693;31;20192;-66
2022/05/10 16:14:49;;;;;;;2.40;1.30;;;;;;;26.50;26.52;100704.31;18623859;31;20152;-66
2022/05/10 16:24:54;;;;;;;3.78;1.50;;;;;;;26.34;27.91;100697.25;18622409;31;20091;-66
2022/05/10 16:34:57;;;;;;;2.17;1.27;;;;;;;25.82;27.17;100702.25;18622744;31;20493;-66
2022/05/10 16:45:34;;;;;;;4.35;1.25;;;;;;;26.00;27.41;100696.72;18617332;31;21837;-69
2022/05/10 16:55:39;;;;;;;2.85;1.00;;;;;;;25.72;28.04;100690.41;18558312;31;20424;-66
2022/05/10 17:05:44;;;;;;;2.30;1.30;;;;;;;25.46;27.48;100696.34;18587785;31;20137;-66
2022/05/10 17:15:48;;;;;;;4.62;1.17;;;;;;;25.07;29.36;100689.75;18565357;31;20636;-66
2022/05/10 17:25:53;;;;;;;1.73;1.30;;;;;;;24.74;31.09;100690.75;18561458;31;20100;-66
2022/05/10 17:35:56;;;;;;;3.90;1.60;;;;;;;24.12;32.42;100700.38;18542932;32;20369;-65
2022/05/10 17:46:00;;;;;;;2.15;1.30;;;;;;;23.46;32.98;100699.41;18554908;32;20152;-66
2022/05/10 17:56:05;;;;;;;2.33;1.40;;;;;;;23.01;35.72;100707.78;18562066;31;20118;-69
2022/05/10 18:06:10;;;;;;;3.22;1.52;;;;;;;21.90;40.55;100720.00;18627810;31;20136;-66
2022/05/10 18:16:14;;;;;;;3.80;1.87;;;;;;;21.02;42.63;100732.56;18625709;31;20096;-65
2022/05/10 18:26:19;;;;;;;3.22;1.60;;;;;;;20.20;43.37;100737.44;18615526;31;20157;-66
2022/05/10 18:36:23;;;;;;;3.17;1.45;;;;;;;19.27;47.18;100749.44;18559456;31;20103;-65
2022/05/10 18:46:27;;;;;;;7.28;1.85;;;;;;;18.67;50.80;100746.03;18544718;31;20140;-65
2022/05/10 18:56:30;;;;;;;4.47;1.75;;;;;;;18.41;52.64;100753.84;18543183;31;20091;-65
2022/05/10 19:06:35;;;;;;;4.87;1.60;;;;;;;17.79;53.30;100768.72;18558784;31;20081;-65
2022/05/10 19:16:38;;;;;;;8.77;2.25;;;;;;;17.59;53.60;100775.38;18559143;31;20420;-65
2022/05/10 19:26:43;;;;;;;4.12;1.90;;;;;;;17.46;55.25;100781.88;18543818;31;20096;-65
2022/05/10 19:36:46;;;;;;;5.70;1.80;;;;;;;16.73;55.36;100789.66;18560845;31;20109;-65
2022/05/10 19:46:51;;;;;;;4.32;1.95;;;;;;;16.61;55.58;100796.06;18540778;31;20424;-64
2022/05/10 19:56:54;;;;;;;5.18;2.35;;;;;;;16.16;57.88;100812.75;18546110;32;20421;-65
2022/05/10 20:07:00;;;;;;;5.05;2.58;;;;;;;15.96;60.46;100810.50;18557048;31;20682;-64
2022/05/10 20:17:04;;;;;;;6.65;2.58;;;;;;;15.46;62.62;100815.69;18552852;32;20107;-64
2022/05/10 20:27:09;;;;;;;5.28;2.40;;;;;;;15.12;63.01;100815.31;18594590;31;20087;-64
2022/05/10 20:37:12;;;;;;;8.43;2.37;;;;;;;15.24;63.32;100818.66;18622331;31;20104;-64
2022/05/10 20:47:20;;;;;;;5.32;2.33;;;;;;;14.74;64.67;100815.81;18625247;31;20096;-64
2022/05/10 20:57:23;;;;;;;6.43;2.90;;;;;;;14.18;64.97;100814.69;18623590;31;20088;-64
2022/05/10 21:17:49;;;;;;;4.78;2.33;;;;;;;13.48;67.01;100817.09;18607912;31;20119;-64
2022/05/10 21:27:54;;;;;;;7.47;3.00;;;;;;;13.80;66.05;100811.59;18629605;31;20102;-64
2022/05/10 21:37:58;;;;;;;8.63;2.87;;;;;;;13.59;68.34;100810.84;18631163;31;20083;-64
2022/05/10 21:48:03;;;;;;;7.53;2.55;;;;;;;13.88;66.63;100822.00;18630540;31;20100;-64
2022/05/10 21:58:06;;;;;;;7.55;2.97;;;;;;;12.81;70.56;100836.69;18630262;31;20126;-64
2022/05/10 22:08:13;;;;;;;6.20;2.65;;;;;;;13.18;68.70;100819.87;18629884;31;20497;-64
2022/05/10 22:18:16;;;;;;;5.72;2.33;;;;;;;12.97;69.30;100824.38;18629704;31;20132;-64
2022/05/10 22:28:20;;;;;;;4.90;2.30;;;;;;;12.92;69.58;100822.66;18629696;31;20424;-64
2022/05/10 22:38:24;;;;;;;8.77;3.28;;;;;;;12.56;70.30;100826.28;18615405;31;20108;-64
2022/05/10 22:48:28;;;;;;;10.85;3.47;;;;;;;12.65;69.91;100835.00;18628839;31;20444;-64
2022/05/10 22:58:31;;;;;;;5.43;2.87;;;;;;;11.94;72.49;100842.06;18628299;31;20100;-64
2022/05/10 23:08:36;;;;;;;4.80;2.72;;;;;;;12.43;70.60;100835.06;18628316;31;20103;-64
2022/05/10 23:18:40;;;;;;;6.47;3.12;;;;;;;12.43;71.25;100827.22;18613567;31;20153;-64
2022/05/10 23:28:44;;;;;;;5.87;2.70;;;;;;;11.84;73.03;100825.53;18627658;31;20373;-64
2022/05/10 23:38:47;;;;;;;7.22;3.65;;;;;;;12.44;70.61;100816.72;18628525;31;20118;-64
2022/05/10 23:48:52;;;;;;;7.37;3.28;;;;;;;11.78;72.05;100818.56;18626129;31;20092;-64
2022/05/10 23:58:55;;;;;;;7.60;3.37;;;;;;;11.98;71.57;100817.66;18626884;31;20390;-64
